Time;durP1;ratioP1;P1;durP2;ratioP2;P2;SDS_P1;SDS_P2;PMS_P1;PMS_P2;Temp;Humidity;BMP_temperature;BMP_pressure;BME280_temperature;BME280_humidity;BME280_pressure;Samples;Min_cycle;Max_cycle;Signal;HPM_P1;HPM_P2
2022/01/15 00:01:06;;;;;;;7.27;5.50;;;;;;;5.88;62.05;100572.63;5018764;28;21022;-80
2022/01/15 00:03:39;;;;;;;6.60;5.00;;;;;;;5.95;61.46;100562.97;5022116;23;20217;-80
2022/01/15 00:06:36;;;;;;;7.83;5.07;;;;;;;5.97;62.27;100559.13;5013363;23;20277;-80
2022/01/15 00:09:03;;;;;;;7.03;5.63;;;;;;;5.92;62.15;100560.66;5022506;23;20220;-80
2022/01/15 00:11:37;;;;;;;6.47;5.30;;;;;;;5.85;62.53;100533.84;5053901;23;20233;-80
2022/01/15 00:14:13;;;;;;;7.63;5.33;;;;;;;5.97;61.98;100559.13;5040204;23;20208;-80
2022/01/15 00:16:55;;;;;;;7.27;5.33;;;;;;;6.03;61.87;100568.28;5028031;23;20222;-80
2022/01/15 00:19:32;;;;;;;6.77;4.90;;;;;;;6.03;62.16;100569.09;5040866;23;20222;-80
2022/01/15 00:22:45;;;;;;;5.87;4.47;;;;;;;6.08;61.50;100571.25;5143663;23;20213;-79
2022/01/15 00:26:22;;;;;;;6.33;4.97;;;;;;;5.92;62.63;100572.13;5056664;23;20690;-80
2022/01/15 00:29:11;;;;;;;7.10;5.30;;;;;;;5.73;62.65;100575.06;5027224;23;20235;-80
2022/01/15 00:31:43;;;;;;;6.07;4.73;;;;;;;5.92;62.24;100592.56;5034394;23;20219;-80
2022/01/15 00:34:14;;;;;;;5.57;4.50;;;;;;;5.99;62.10;100578.41;5018859;23;20235;-80
2022/01/15 00:36:51;;;;;;;5.30;4.80;;;;;;;5.95;62.58;100603.69;5020608;23;20199;-80
2022/01/15 00:39:18;;;;;;;5.57;4.47;;;;;;;5.80;62.04;100584.03;5027435;23;20245;-81
2022/01/15 00:42:10;;;;;;;5.60;4.20;;;;;;;5.84;62.25;100603.16;5058953;28;20244;-80
2022/01/15 00:44:39;;;;;;;4.67;3.73;;;;;;;5.99;61.74;100604.19;5055415;28;20189;-80
2022/01/15 00:47:14;;;;;;;6.47;4.33;;;;;;;5.98;61.57;100598.03;5058288;28;20164;-80
2022/01/15 00:49:50;;;;;;;5.73;4.50;;;;;;;6.02;61.72;100609.19;5075167;28;20217;-79
2022/01/15 00:52:26;;;;;;;6.60;4.57;;;;;;;5.85;61.63;100615.44;5076851;28;20222;-80
2022/01/15 00:55:11;;;;;;;5.53;4.40;;;;;;;5.86;61.94;100595.84;5036612;23;20227;-80
2022/01/15 00:57:39;;;;;;;7.50;4.93;;;;;;;5.92;61.97;100613.84;5067755;23;20244;-79
2022/01/15 01:00:31;;;;;;;5.77;4.27;;;;;;;5.85;61.69;100626.09;5043824;23;20235;-80
2022/01/15 01:02:58;;;;;;;6.57;5.07;;;;;;;5.70;62.54;100620.59;5056028;23;20211;-79
2022/01/15 01:05:27;;;;;;;5.73;4.37;;;;;;;5.82;62.07;100632.59;5040655;23;20218;-82
2022/01/15 01:08:04;;;;;;;6.83;5.10;;;;;;;5.77;63.04;100626.94;5044055;23;20249;-80
2022/01/15 01:11:30;;;;;;;5.67;4.80;;;;;;;5.76;63.22;100638.56;5123746;23;20205;-80
2022/01/15 01:25:10;;;;;;;5.23;4.60;;;;;;;5.76;62.50;100622.59;5045618;23;20237;-80
2022/01/15 01:27:50;;;;;;;4.63;4.13;;;;;;;5.59;62.36;100621.75;4998737;23;20243;31
2022/01/15 01:30:34;;;;;;;5.63;4.53;;;;;;;5.78;61.88;100621.41;5006149;23;20290;-82
2022/01/15 01:33:38;;;;;;;5.87;4.43;;;;;;;5.75;61.50;100612.94;5031535;23;20233;-82
2022/01/15 01:36:48;;;;;;;4.50;3.87;;;;;;;5.74;60.93;100606.78;5052082;28;20174;-82
2022/01/15 01:39:20;;;;;;;4.57;3.63;;;;;;;5.66;61.25;100604.13;5056381;23;20211;-81
2022/01/15 01:45:04;;;;;;;4.17;3.33;;;;;;;5.83;60.94;100612.16;5031332;23;20231;-82
2022/01/15 01:47:45;;;;;;;4.97;3.47;;;;;;;5.93;60.85;100613.66;5008402;23;20250;31
2022/01/15 01:50:36;;;;;;;4.40;3.53;;;;;;;5.99;60.28;100612.16;5000514;23;20258;-82
2022/01/15 01:53:05;;;;;;;4.60;3.47;;;;;;;5.88;60.55;100602.69;5034081;23;20237;-82
2022/01/15 01:56:04;;;;;;;5.57;3.97;;;;;;;5.91;60.62;100612.16;5053448;23;20257;-81
2022/01/15 01:58:41;;;;;;;4.23;3.50;;;;;;;5.85;60.32;100596.84;5021766;23;20225;-82
2022/01/15 02:01:29;;;;;;;3.87;3.30;;;;;;;5.88;59.53;100601.88;5068214;23;20221;-82
2022/01/15 02:04:23;;;;;;;4.83;3.70;;;;;;;5.79;60.18;100603.63;5062762;23;20229;-82
2022/01/15 02:07:19;;;;;;;4.00;3.10;;;;;;;5.80;59.72;100580.53;5029767;23;20299;-82
2022/01/15 02:10:01;;;;;;;5.17;3.37;;;;;;;5.91;60.01;100591.72;5038197;23;20228;-80
2022/01/15 02:12:32;;;;;;;3.83;3.13;;;;;;;5.90;60.01;100592.72;5048772;23;20293;-82
2022/01/15 02:15:41;;;;;;;3.57;2.97;;;;;;;5.92;59.79;100581.94;5024447;28;20210;-82
2022/01/15 02:18:11;;;;;;;4.03;3.30;;;;;;;5.99;59.49;100591.72;5066620;23;20262;-81
2022/01/15 02:23:44;;;;;;;4.33;3.20;;;;;;;5.83;59.63;100574.91;5043816;23;20265;-82
2022/01/15 02:26:35;;;;;;;4.10;3.20;;;;;;;5.86;60.63;100583.38;5035808;23;20241;-82
2022/01/15 02:29:05;;;;;;;4.13;3.00;;;;;;;5.95;59.92;100600.19;5045515;23;20158;-81
2022/01/15 02:31:37;;;;;;;5.00;3.37;;;;;;;5.86;60.46;100594.03;5057166;23;20281;-82
2022/01/15 02:34:27;;;;;;;5.67;4.07;;;;;;;5.84;61.09;100587.19;5017999;28;20214;-80
2022/01/15 02:37:16;;;;;;;5.70;4.30;;;;;;;5.80;61.13;100586.69;5022780;23;20230;-82
2022/01/15 02:39:46;;;;;;;4.90;4.30;;;;;;;5.67;61.76;100573.06;5043913;23;20203;-82
2022/01/15 02:42:16;;;;;;;5.33;4.30;;;;;;;5.78;62.42;100589.50;5051455;23;20218;-80
2022/01/15 02:45:19;;;;;;;5.10;4.30;;;;;;;5.88;60.96;100583.25;5022003;28;20218;-79
2022/01/15 02:48:26;;;;;;;5.80;5.00;;;;;;;5.67;61.67;100576.56;5047536;23;20237;-81
2022/01/15 02:51:05;;;;;;;5.80;5.00;;;;;;;5.73;61.71;100585.72;5046075;23;20228;-79
2022/01/15 02:53:37;;;;;;;5.33;4.60;;;;;;;5.56;62.13;100576.03;5028771;23;20239;-79
2022/01/15 02:56:07;;;;;;;5.53;4.73;;;;;;;5.58;62.11;100582.88;5014849;28;20234;-79
2022/01/15 02:58:34;;;;;;;4.77;4.27;;;;;;;5.58;61.33;100577.56;5108499;23;20239;-79
2022/01/15 03:01:04;;;;;;;5.57;4.30;;;;;;;5.57;61.37;100583.84;5004229;23;20210;-79
2022/01/15 03:04:03;;;;;;;5.30;3.93;;;;;;;5.38;61.46;100576.19;5034650;23;20291;-80
2022/01/15 03:06:45;;;;;;;4.80;4.00;;;;;;;5.57;60.43;100602.47;5052848;23;20285;-79
2022/01/15 03:09:19;;;;;;;5.83;4.00;;;;;;;5.62;60.41;100589.50;5036496;28;20191;-82
2022/01/15 03:12:01;;;;;;;5.43;3.60;;;;;;;5.65;59.57;100591.84;5038491;23;20289;-82
2022/01/15 03:15:01;;;;;;;4.07;3.40;;;;;;;5.63;60.19;100600.97;5022662;23;20291;-82
2022/01/15 03:17:32;;;;;;;3.13;2.67;;;;;;;5.69;59.62;100595.03;5037997;23;20302;-79
2022/01/15 03:20:19;;;;;;;4.63;3.07;;;;;;;5.68;59.04;100602.16;5023409;23;20235;-82
2022/01/15 03:23:14;;;;;;;3.20;2.90;;;;;;;5.71;58.69;100599.16;5042920;23;20246;-81
2022/01/15 03:25:45;;;;;;;3.33;2.40;;;;;;;5.84;57.96;100600.47;5017156;23;20238;-81
2022/01/15 03:28:14;;;;;;;2.47;2.00;;;;;;;5.86;57.89;100599.34;5041563;23;20241;-82
2022/01/15 03:30:57;;;;;;;2.43;2.23;;;;;;;5.71;57.57;100579.72;5059623;23;20224;-81
2022/01/15 03:33:27;;;;;;;2.70;2.30;;;;;;;5.70;57.25;100592.16;5012784;28;20231;-82
2022/01/15 03:35:56;;;;;;;2.80;2.07;;;;;;;5.86;56.36;100593.19;5056531;23;20665;-81
2022/01/15 03:38:38;;;;;;;2.43;2.03;;;;;;;5.80;56.23;100584.03;5019359;28;20242;-82
2022/01/15 03:41:20;;;;;;;2.33;2.00;;;;;;;5.88;56.05;100591.25;5043209;23;20250;-81
2022/01/15 03:44:02;;;;;;;3.20;2.30;;;;;;;5.86;56.54;100585.22;5034420;28;20199;-81
2022/01/15 03:46:30;;;;;;;3.17;2.07;;;;;;;5.83;56.37;100590.88;5044377;23;20238;-81
2022/01/15 03:49:12;;;;;;;2.93;2.23;;;;;;;5.97;56.39;100603.53;5027301;23;20359;-82
2022/01/15 03:51:40;;;;;;;3.37;2.77;;;;;;;5.94;56.84;100606.50;5017283;28;20232;-81
2022/01/15 03:54:27;;;;;;;3.10;2.53;;;;;;;5.87;57.38;100602.88;5029454;23;20286;-82
2022/01/15 03:57:00;;;;;;;5.10;2.73;;;;;;;5.80;57.62;100600.00;5111798;23;20254;-81
2022/01/15 03:59:51;;;;;;;3.60;2.80;;;;;;;5.72;57.85;100576.91;5038377;23;20249;-82
2022/01/15 04:02:25;;;;;;;2.87;2.43;;;;;;;5.73;58.44;100599.00;5003480;23;20233;-82
2022/01/15 04:04:59;;;;;;;3.90;2.93;;;;;;;5.69;58.12;100600.34;5033727;28;20210;-82
2022/01/15 04:07:25;;;;;;;4.00;2.67;;;;;;;5.65;57.88;100596.31;5034179;28;20194;-82
2022/01/15 04:09:55;;;;;;;3.37;2.80;;;;;;;5.72;57.50;100597.34;5049114;23;20246;-82
2022/01/15 04:12:36;;;;;;;4.40;3.27;;;;;;;5.78;57.98;100615.31;5048818;23;20246;-82
2022/01/15 04:15:15;;;;;;;4.17;3.10;;;;;;;5.81;57.30;100609.63;5047389;23;20208;-80
2022/01/15 04:17:50;;;;;;;4.73;3.00;;;;;;;5.81;57.47;100599.00;5060406;23;20213;31
2022/01/15 04:20:22;;;;;;;3.60;2.90;;;;;;;5.76;57.18;100606.63;4976068;28;20200;-81
2022/01/15 04:22:55;;;;;;;3.27;2.50;;;;;;;5.86;56.51;100604.66;4998404;23;20224;-81
2022/01/15 04:25:23;;;;;;;2.77;2.33;;;;;;;5.82;56.47;100602.50;5047650;23;20236;-81
2022/01/15 04:27:56;;;;;;;2.80;2.43;;;;;;;5.81;56.60;100604.31;5032487;23;20242;-81
2022/01/15 04:30:47;;;;;;;3.03;2.33;;;;;;;5.53;55.85;100571.91;4978572;23;20260;-81
2022/01/15 04:33:34;;;;;;;3.33;2.63;;;;;;;5.80;55.70;100602.66;4968450;28;20231;-81
2022/01/15 04:36:25;;;;;;;2.93;2.60;;;;;;;5.62;56.99;100594.00;5087932;23;20596;-81
2022/01/15 04:38:55;;;;;;;4.83;3.47;;;;;;;5.69;57.72;100611.78;5024025;23;20211;-82
2022/01/15 04:41:25;;;;;;;4.63;3.10;;;;;;;5.69;56.84;100605.66;4996140;28;20172;-82
2022/01/15 04:43:55;;;;;;;4.67;3.37;;;;;;;5.54;57.85;100599.31;4997613;28;20283;-81
2022/01/15 04:46:59;;;;;;;5.03;3.40;;;;;;;5.57;58.94;100626.38;5049797;23;20213;-81
2022/01/15 04:49:47;;;;;;;4.73;3.60;;;;;;;5.48;58.83;100621.22;5056624;23;20210;-82
2022/01/15 04:52:38;;;;;;;3.97;3.50;;;;;;;5.50;58.93;100628.06;5056882;23;20235;-79
2022/01/15 04:55:15;;;;;;;5.10;3.60;;;;;;;5.40;59.79;100626.53;5044041;23;20227;-81
2022/01/15 04:57:42;;;;;;;5.27;4.10;;;;;;;5.37;59.72;100630.31;5014656;28;20244;-80
2022/01/15 05:00:23;;;;;;;4.87;4.07;;;;;;;5.44;59.51;100631.34;5022263;23;20250;-80
2022/01/15 05:03:17;;;;;;;4.63;4.13;;;;;;;5.38;59.49;100631.16;5009803;23;20254;-81
2022/01/15 05:05:49;;;;;;;5.93;3.97;;;;;;;5.28;59.86;100624.16;5013236;28;20657;-81
2022/01/15 05:08:24;;;;;;;5.20;3.80;;;;;;;5.22;60.20;100635.44;5014175;28;20229;-81
2022/01/15 05:11:00;;;;;;;4.87;4.17;;;;;;;5.30;59.76;100626.66;5036755;23;20248;-79
2022/01/15 05:13:30;;;;;;;4.37;3.73;;;;;;;5.25;60.07;100623.66;5018626;23;20658;-81
2022/01/15 05:16:25;;;;;;;4.10;3.53;;;;;;;5.42;60.17;100646.59;5031810;23;20472;-81
2022/01/15 05:19:00;;;;;;;4.60;4.03;;;;;;;5.31;59.75;100631.81;5019810;23;20283;-81
2022/01/15 05:21:41;;;;;;;5.43;4.47;;;;;;;5.39;59.83;100644.28;5034375;23;20290;-81
2022/01/15 05:24:18;;;;;;;4.97;4.10;;;;;;;5.30;60.01;100635.47;5030355;23;20218;-82
2022/01/15 05:27:09;;;;;;;5.07;4.20;;;;;;;5.48;59.73;100643.31;5039974;23;20254;-81
2022/01/15 05:29:53;;;;;;;5.37;4.00;;;;;;;5.36;59.96;100636.66;5052240;23;20226;-81
2022/01/15 05:32:23;;;;;;;4.83;4.23;;;;;;;5.33;59.92;100642.25;5064947;23;20228;-81
2022/01/15 05:35:25;;;;;;;4.67;4.27;;;;;;;5.20;60.17;100632.09;5054192;23;20291;-81
2022/01/15 05:38:02;;;;;;;5.67;4.47;;;;;;;5.16;60.28;100633.41;5022035;23;20262;-81
2022/01/15 05:40:31;;;;;;;5.47;4.10;;;;;;;5.17;60.50;100635.09;5046576;23;20236;-81
2022/01/15 05:42:58;;;;;;;5.20;4.13;;;;;;;5.32;59.56;100645.91;5044541;23;20219;-82
2022/01/15 05:45:45;;;;;;;5.73;4.57;;;;;;;5.27;59.66;100650.91;5015544;23;20230;-81
2022/01/15 05:48:13;;;;;;;5.20;3.53;;;;;;;5.26;58.86;100659.88;5039460;28;20208;-81
2022/01/15 05:50:54;;;;;;;4.63;3.70;;;;;;;5.22;59.29;100662.00;5022434;23;20213;-80
2022/01/15 05:53:23;;;;;;;5.47;3.33;;;;;;;5.25;58.94;100667.00;5022686;23;20236;-81
2022/01/15 05:55:51;;;;;;;4.00;3.37;;;;;;;5.22;58.26;100666.50;5036009;23;20331;-81
2022/01/15 06:01:32;;;;;;;3.60;2.93;;;;;;;5.28;57.86;100656.03;5026794;23;20233;-81
2022/01/15 06:04:04;;;;;;;3.40;2.57;;;;;;;5.34;57.47;100657.22;5056434;28;20179;-80
2022/01/15 06:06:35;;;;;;;3.60;2.80;;;;;;;5.23;57.65;100649.53;5056688;28;20276;-81
2022/01/15 06:09:03;;;;;;;4.10;3.00;;;;;;;5.33;57.62;100650.25;5039816;28;20214;-81
2022/01/15 06:11:51;;;;;;;4.07;2.90;;;;;;;5.31;57.05;100653.06;5054772;28;20257;-81
2022/01/15 06:14:19;;;;;;;3.07;2.50;;;;;;;5.31;57.39;100650.41;5063105;23;20260;-80
2022/01/15 06:16:47;;;;;;;4.47;2.80;;;;;;;5.38;57.30;100661.22;5043344;23;20201;-81
2022/01/15 06:19:14;;;;;;;3.10;2.67;;;;;;;5.38;56.73;100655.06;5036304;23;20218;-81
2022/01/15 06:21:58;;;;;;;3.33;3.00;;;;;;;5.35;57.22;100655.41;5045208;23;20210;-81
2022/01/15 06:25:12;;;;;;;4.37;2.67;;;;;;;5.37;57.75;100667.53;5094903;23;20242;-81
2022/01/15 06:28:26;;;;;;;3.77;2.60;;;;;;;5.50;56.48;100667.09;5038135;28;20195;-81
2022/01/15 06:30:55;;;;;;;4.90;2.90;;;;;;;5.37;56.72;100664.88;5049530;22;20233;-81
2022/01/15 06:34:14;;;;;;;3.70;2.83;;;;;;;5.22;57.04;100655.88;5048505;23;20243;-81
2022/01/15 06:37:19;;;;;;;4.13;2.87;;;;;;;5.39;57.10;100667.38;5026124;23;20215;-81
2022/01/15 06:40:44;;;;;;;4.03;3.00;;;;;;;5.30;57.17;100670.00;4853960;23;16052964;-79
2022/01/15 06:44:17;;;;;;;4.03;2.90;;;;;;;5.30;57.15;100677.97;5237848;23;20441;-79
2022/01/15 06:51:25;;;;;;;4.90;3.40;;;;;;;5.28;57.64;100692.41;5032359;23;20255;-80
2022/01/15 06:54:41;;;;;;;4.90;3.40;;;;;;;5.39;57.09;100683.31;5056207;23;20260;-79
2022/01/15 06:57:34;;;;;;;3.57;3.27;;;;;;;5.28;57.89;100685.25;5042419;23;20217;-80
2022/01/15 07:00:32;;;;;;;4.00;3.10;;;;;;;5.30;57.67;100682.47;5049967;23;20278;-79
2022/01/15 07:03:47;;;;;;;4.40;3.10;;;;;;;5.32;57.05;100683.13;5023949;28;20199;-79
2022/01/15 07:06:26;;;;;;;4.07;3.20;;;;;;;5.35;57.07;100688.13;5033210;23;20218;-79
2022/01/15 07:13:20;;;;;;;4.67;2.60;;;;;;;5.47;56.81;100699.28;4995783;23;20234;-80
2022/01/15 07:16:08;;;;;;;3.80;2.90;;;;;;;5.44;56.84;100694.31;5060685;23;20245;-81
2022/01/15 07:18:36;;;;;;;3.40;2.87;;;;;;;5.55;56.89;100700.13;5267112;23;20233;-80
2022/01/15 07:21:07;;;;;;;4.13;2.87;;;;;;;5.52;56.76;100695.16;5041544;23;20302;-79
2022/01/15 07:24:18;;;;;;;3.63;2.87;;;;;;;5.60;56.30;100691.72;5058167;23;20222;-80
2022/01/15 07:26:52;;;;;;;4.13;3.00;;;;;;;5.62;56.77;100703.84;5042176;23;20245;-80
2022/01/15 07:29:31;;;;;;;3.97;3.00;;;;;;;5.59;56.48;100698.00;5025912;23;20214;-80
2022/01/15 07:32:06;;;;;;;3.67;3.17;;;;;;;5.65;56.96;100711.47;5049877;23;20237;-80
2022/01/15 07:34:59;;;;;;;3.70;3.07;;;;;;;5.69;55.72;100702.19;5016299;23;20202;-80
2022/01/15 07:37:47;;;;;;;4.17;3.10;;;;;;;5.69;56.44;100688.88;5022322;23;20230;-80
2022/01/15 07:40:22;;;;;;;3.43;2.77;;;;;;;5.89;55.34;100699.25;5042085;23;20230;-79
2022/01/15 07:42:54;;;;;;;3.53;3.20;;;;;;;5.93;55.08;100695.28;5024880;23;20237;-81
2022/01/15 07:45:26;;;;;;;3.83;3.00;;;;;;;6.03;54.26;100701.28;5019228;28;20222;-81
2022/01/15 07:47:59;;;;;;;4.07;2.90;;;;;;;6.06;55.22;100700.97;5026001;28;20216;-82
2022/01/15 07:51:11;;;;;;;3.40;3.10;;;;;;;5.97;55.37;100694.78;5060453;23;20218;-82
2022/01/15 07:54:12;;;;;;;5.20;3.37;;;;;;;5.84;55.45;100670.47;5036023;23;20242;-81
2022/01/15 07:57:13;;;;;;;3.63;3.07;;;;;;;6.07;56.10;100689.31;5034114;28;20580;-82
2022/01/15 07:59:44;;;;;;;3.87;3.20;;;;;;;6.12;55.97;100681.66;5072076;23;20240;-81
2022/01/15 08:02:14;;;;;;;4.43;3.27;;;;;;;6.19;55.41;100683.53;5058880;28;20217;-81
2022/01/15 08:05:19;;;;;;;4.23;3.50;;;;;;;6.34;54.93;100682.88;5059572;23;20226;-81
2022/01/15 08:08:01;;;;;;;5.70;3.67;;;;;;;6.27;54.68;100692.50;5038808;23;20230;-81
2022/01/15 08:10:28;;;;;;;5.13;3.37;;;;;;;6.40;55.12;100691.00;5033153;28;20230;-81
2022/01/15 08:12:58;;;;;;;5.00;3.53;;;;;;;6.27;53.85;100674.69;5032323;23;20529;-81
2022/01/15 08:16:15;;;;;;;4.57;3.47;;;;;;;6.56;53.98;100680.34;5070968;23;20219;-81
2022/01/15 08:18:59;;;;;;;3.97;3.13;;;;;;;6.65;53.84;100683.81;5013684;23;20232;-81
2022/01/15 08:21:45;;;;;;;4.87;3.50;;;;;;;6.72;53.95;100694.66;5004835;28;20215;-81
2022/01/15 08:24:27;;;;;;;4.10;3.27;;;;;;;6.80;53.50;100690.13;4984832;23;20212;-80
2022/01/15 08:27:03;;;;;;;5.17;3.60;;;;;;;6.92;52.42;100686.09;5024931;23;20213;-80
2022/01/15 08:29:40;;;;;;;4.30;3.50;;;;;;;6.80;53.07;100683.97;5041653;23;20264;-80
2022/01/15 08:32:21;;;;;;;3.90;2.93;;;;;;;6.83;52.55;100679.13;5046576;23;20205;-80
2022/01/15 08:34:48;;;;;;;4.63;3.60;;;;;;;6.92;53.09;100690.59;5039583;23;20285;-80
2022/01/15 08:41:05;;;;;;;4.33;3.00;;;;;;;7.17;51.22;100705.53;5004127;23;20540;-80
2022/01/15 08:44:01;;;;;;;3.73;3.10;;;;;;;7.00;50.73;100695.88;5021189;23;20185;-80
2022/01/15 08:47:02;;;;;;;19.03;14.80;;;;;;;7.02;50.97;100702.72;5187372;23;20252;-80
2022/01/15 08:49:36;;;;;;;7.40;5.40;;;;;;;6.93;51.10;100686.94;5151256;23;20206;-81
2022/01/15 08:52:28;;;;;;;4.43;3.70;;;;;;;6.82;51.51;100692.59;5070473;23;20214;-80
2022/01/15 08:59:18;;;;;;;4.53;3.23;;;;;;;7.00;51.21;100704.72;5072331;23;20232;-81
2022/01/15 09:02:15;;;;;;;4.53;3.50;;;;;;;7.22;51.28;100708.50;5061668;28;20190;-80
2022/01/15 09:05:59;;;;;;;5.30;3.80;;;;;;;7.35;50.62;100690.13;5072956;23;20252;-79
2022/01/15 09:09:21;;;;;;;4.00;3.60;;;;;;;7.44;49.95;100693.59;5053923;28;20200;-80
2022/01/15 09:12:17;;;;;;;4.37;3.50;;;;;;;7.42;49.86;100696.41;5061888;23;20304;-80
2022/01/15 09:15:14;;;;;;;4.03;3.50;;;;;;;7.48;49.71;100698.41;5057459;28;20225;-80
2022/01/15 09:18:34;;;;;;;5.03;3.60;;;;;;;7.68;49.24;100692.63;5153114;23;20230;-81
2022/01/15 09:22:11;;;;;;;3.70;3.07;;;;;;;7.69;49.21;100713.81;5051997;23;20249;-80
2022/01/15 09:25:39;;;;;;;3.90;2.90;;;;;;;7.68;48.85;100698.81;5060283;23;20236;-81
2022/01/15 09:31:54;;;;;;;3.83;2.63;;;;;;;7.76;48.92;100703.25;5030564;23;20222;-80
2022/01/15 09:34:34;;;;;;;5.53;3.17;;;;;;;8.05;47.61;100698.06;5031799;23;20288;-80
2022/01/15 09:37:20;;;;;;;2.00;1.67;;;;;;;7.97;46.52;100693.63;5075357;23;20252;-80
2022/01/15 09:40:10;;;;;;;2.67;2.20;;;;;;;7.90;47.71;100710.50;5150812;23;20215;-80
2022/01/15 09:42:58;;;;;;;3.07;2.33;;;;;;;8.16;46.82;100697.69;5008840;23;20230;-80
2022/01/15 09:45:29;;;;;;;2.80;2.47;;;;;;;8.38;46.87;100699.53;5036071;28;20228;-80
2022/01/15 09:48:20;;;;;;;4.37;2.87;;;;;;;8.21;46.67;100691.81;5060253;23;20260;-81
2022/01/15 09:50:47;;;;;;;3.73;3.27;;;;;;;8.30;46.40;100674.75;5000130;23;20206;-80
2022/01/15 09:53:20;;;;;;;4.03;2.50;;;;;;;8.44;45.31;100684.63;5028693;23;20275;-80
2022/01/15 09:55:52;;;;;;;2.57;2.30;;;;;;;8.26;45.52;100694.72;5016257;23;20210;-80
2022/01/15 09:59:03;;;;;;;3.73;2.27;;;;;;;8.22;44.98;100680.09;5031969;23;20255;-80
2022/01/15 10:01:47;;;;;;;3.67;2.33;;;;;;;7.98;45.79;100667.75;5023130;23;20190;-80
2022/01/15 10:04:21;;;;;;;3.40;2.03;;;;;;;8.00;46.19;100678.25;5048933;23;20254;-80
2022/01/15 10:07:48;;;;;;;2.27;1.80;;;;;;;7.75;46.87;100685.56;5032084;23;20286;-80
2022/01/15 10:11:01;;;;;;;3.53;2.33;;;;;;;7.63;46.58;100685.16;5040273;23;20589;-80
2022/01/15 10:13:46;;;;;;;4.53;2.27;;;;;;;7.60;46.65;100684.69;5034462;28;20227;-81
2022/01/15 10:16:22;;;;;;;2.83;2.17;;;;;;;7.59;47.10;100677.69;5049607;23;20236;-80
2022/01/15 10:19:10;;;;;;;4.60;2.20;;;;;;;7.48;47.03;100669.06;5042196;23;20238;-80
2022/01/15 10:21:40;;;;;;;3.33;1.80;;;;;;;7.54;47.54;100651.53;5041503;22;20218;-80
2022/01/15 10:24:28;;;;;;;4.40;1.87;;;;;;;7.55;47.27;100649.72;5028204;23;20234;-81
2022/01/15 10:27:26;;;;;;;3.13;2.10;;;;;;;7.57;46.83;100672.50;5029847;23;20286;-80
2022/01/15 10:30:46;;;;;;;2.97;2.23;;;;;;;7.52;47.14;100665.03;5038353;23;20218;-80
2022/01/15 10:37:28;;;;;;;2.83;1.80;;;;;;;7.51;47.65;100670.56;4961150;23;20265;-80
2022/01/15 10:40:15;;;;;;;2.50;2.23;;;;;;;7.54;47.88;100659.53;5058510;23;20214;-80
2022/01/15 10:43:15;;;;;;;2.57;1.93;;;;;;;7.49;47.75;100664.56;5016476;28;20237;-80
2022/01/15 10:46:13;;;;;;;2.93;2.20;;;;;;;7.42;47.12;100664.41;5038115;23;20238;-80
2022/01/15 10:49:49;;;;;;;3.47;2.00;;;;;;;7.36;47.90;100648.31;5015810;28;20237;-80
2022/01/15 10:52:42;;;;;;;3.07;2.27;;;;;;;7.44;47.80;100642.91;5014461;28;20247;-80
2022/01/15 10:55:17;;;;;;;4.10;3.00;;;;;;;7.40;48.15;100644.28;5004878;23;20246;-80
2022/01/15 10:58:09;;;;;;;3.53;2.50;;;;;;;7.52;47.86;100642.88;5016238;28;20207;-80
2022/01/15 11:00:55;;;;;;;4.00;2.33;;;;;;;7.40;47.63;100628.28;5038724;23;20226;-81
2022/01/15 11:03:57;;;;;;;3.30;2.27;;;;;;;7.25;48.10;100627.34;5019354;28;20219;-80
2022/01/15 11:06:47;;;;;;;4.17;3.60;;;;;;;7.32;47.53;100633.66;5036730;23;20235;-80
2022/01/15 11:09:40;;;;;;;6.27;3.00;;;;;;;7.27;48.41;100636.84;5000172;28;20259;-80
2022/01/15 11:12:28;;;;;;;3.40;2.63;;;;;;;7.42;47.12;100629.75;5000913;28;20238;-80
2022/01/15 11:15:18;;;;;;;4.00;2.90;;;;;;;7.45;47.94;100618.75;5019718;23;20293;-80
2022/01/15 11:18:01;;;;;;;4.13;2.90;;;;;;;7.58;47.09;100626.19;5140057;23;20213;-80
2022/01/15 11:21:31;;;;;;;4.53;2.70;;;;;;;7.68;47.00;100623.28;5041282;23;20286;-80
2022/01/15 11:24:53;;;;;;;3.80;2.73;;;;;;;7.51;47.43;100619.91;5056334;23;20229;-81
2022/01/15 11:27:32;;;;;;;3.60;2.70;;;;;;;7.59;47.22;100619.84;5021157;23;20588;-80
2022/01/15 11:30:41;;;;;;;3.30;3.00;;;;;;;7.58;47.61;100599.50;5047437;23;20210;-80
2022/01/15 11:33:50;;;;;;;2.67;2.47;;;;;;;7.70;46.65;100608.75;5026244;23;20231;-80
2022/01/15 11:36:41;;;;;;;4.10;2.70;;;;;;;7.62;47.34;100608.81;5058613;23;20226;-80
2022/01/15 11:42:35;;;;;;;3.80;2.47;;;;;;;7.61;46.97;100595.66;5025124;23;20226;-80
2022/01/15 11:45:06;;;;;;;2.90;2.50;;;;;;;7.52;47.30;100578.88;5039930;23;20221;-80
2022/01/15 11:47:36;;;;;;;2.83;2.20;;;;;;;7.56;47.46;100576.69;5047557;23;20247;-80
2022/01/15 11:50:30;;;;;;;3.97;2.40;;;;;;;7.51;47.81;100587.91;5144400;23;20248;-80
2022/01/15 11:53:44;;;;;;;2.97;2.60;;;;;;;7.61;48.12;100587.63;5055376;23;20216;-80
2022/01/15 11:56:42;;;;;;;5.33;2.80;;;;;;;7.60;48.54;100580.69;5031555;23;20214;-80
2022/01/15 11:59:34;;;;;;;5.70;2.97;;;;;;;7.55;47.59;100583.03;5056912;28;20229;-80
2022/01/15 12:02:29;;;;;;;4.80;3.00;;;;;;;7.39;48.30;100589.28;5055115;28;20209;-80
2022/01/15 12:05:16;;;;;;;2.60;2.40;;;;;;;7.55;48.15;100575.88;5052375;28;20598;-80
2022/01/15 12:08:03;;;;;;;3.80;3.00;;;;;;;7.67;47.22;100577.09;5043162;23;20198;-80
2022/01/15 12:11:00;;;;;;;4.63;2.93;;;;;;;7.61;47.90;100564.47;5055996;23;20226;-80
2022/01/15 12:13:43;;;;;;;3.40;3.10;;;;;;;7.64;47.38;100561.47;5060624;23;20297;-81
2022/01/15 12:16:36;;;;;;;4.27;3.17;;;;;;;7.58;47.41;100561.34;5053763;28;20261;-80
2022/01/15 12:19:40;;;;;;;3.97;3.20;;;;;;;7.39;47.58;100550.13;5054113;28;20201;-81
2022/01/15 12:22:45;;;;;;;4.37;3.80;;;;;;;7.30;48.33;100558.34;5009997;23;20243;-80
2022/01/15 12:25:45;;;;;;;3.73;3.43;;;;;;;7.41;48.03;100552.63;5130725;23;20221;-80
2022/01/15 12:28:30;;;;;;;4.37;3.07;;;;;;;7.53;47.72;100556.53;5058916;23;20221;-80
2022/01/15 12:31:31;;;;;;;4.07;3.00;;;;;;;7.41;48.08;100544.63;5044860;23;20253;-81
2022/01/15 12:34:27;;;;;;;5.43;3.23;;;;;;;7.32;47.39;100538.53;5044179;23;20234;-80
2022/01/15 12:37:14;;;;;;;3.37;2.60;;;;;;;7.45;47.80;100551.28;5039782;23;20230;-80
2022/01/15 12:40:06;;;;;;;3.30;2.70;;;;;;;7.43;48.87;100542.59;5020379;23;20234;-79
2022/01/15 12:42:56;;;;;;;3.70;2.93;;;;;;;7.31;47.58;100528.88;5035004;28;20174;-79
2022/01/15 12:46:13;;;;;;;3.23;2.50;;;;;;;7.32;48.13;100524.38;5075110;23;20213;-80
2022/01/15 12:49:07;;;;;;;2.93;2.50;;;;;;;7.51;48.16;100537.25;5047035;23;20230;-80
2022/01/15 12:51:34;;;;;;;4.47;3.10;;;;;;;7.43;47.99;100524.78;5056351;23;20222;-80
2022/01/15 12:54:08;;;;;;;3.37;2.80;;;;;;;7.45;47.89;100516.59;5038332;28;20244;-80
2022/01/15 12:56:38;;;;;;;4.10;2.83;;;;;;;7.52;47.65;100530.88;5041028;28;20238;-80
2022/01/15 12:59:05;;;;;;;4.63;3.27;;;;;;;7.42;47.90;100516.94;5029775;28;20254;-80
2022/01/15 13:01:39;;;;;;;4.40;3.50;;;;;;;7.39;47.75;100531.47;5026054;28;20230;-80
2022/01/15 13:04:11;;;;;;;4.40;3.30;;;;;;;7.40;48.08;100521.63;5030490;28;20230;-80
2022/01/15 13:06:42;;;;;;;4.37;3.13;;;;;;;7.48;47.81;100503.75;5014965;28;20194;-80
2022/01/15 13:09:13;;;;;;;4.00;3.37;;;;;;;7.57;48.04;100522.34;5031654;28;20173;-80
2022/01/15 13:11:48;;;;;;;5.63;3.60;;;;;;;7.45;48.30;100519.28;5022819;23;20533;-79
2022/01/15 13:14:43;;;;;;;5.17;3.67;;;;;;;7.38;48.84;100512.97;5028722;23;20221;-80
2022/01/15 13:17:30;;;;;;;23.13;14.50;;;;;;;7.25;49.37;100508.25;5063357;23;20237;-80
2022/01/15 13:19:58;;;;;;;68.30;37.80;;;;;;;7.30;50.14;100505.03;5069559;28;20189;-80
2022/01/15 13:22:28;;;;;;;10.23;6.47;;;;;;;7.04;50.29;100492.06;5074705;23;20230;-79
2022/01/15 13:28:18;;;;;;;3.57;2.93;;;;;;;6.93;50.17;100487.97;5014238;28;20230;-80
2022/01/15 13:31:31;;;;;;;7.00;5.27;;;;;;;7.09;49.74;100506.50;5033895;23;20243;-80
2022/01/15 13:34:34;;;;;;;3.50;2.93;;;;;;;6.86;50.31;100483.53;5074902;23;20249;-80
2022/01/15 13:37:30;;;;;;;4.03;3.33;;;;;;;6.72;50.86;100498.38;5089840;23;20245;-82
2022/01/15 13:40:10;;;;;;;4.70;3.60;;;;;;;6.79;50.39;100498.53;5049231;23;20226;-80
2022/01/15 13:46:34;;;;;;;4.10;3.30;;;;;;;6.97;50.73;100499.91;5042480;23;20209;-81
2022/01/15 13:49:18;;;;;;;4.10;3.30;;;;;;;6.79;50.24;100495.84;5211455;23;20220;-80
2022/01/15 13:55:24;;;;;;;4.23;3.10;;;;;;;6.83;50.75;100497.16;5038654;23;20234;-80
2022/01/15 13:58:32;;;;;;;3.50;2.87;;;;;;;6.79;50.70;100504.69;5011471;23;20226;-81